sensor_id;sensor_type;location;lat;lon;timestamp;P1;durP1;ratioP1;P2;durP2;ratioP2
8401;SDS011;4238;48.404;9.498;2023-04-01T00:01:29;2.10;;;1.00;;
8401;SDS011;4238;48.404;9.498;2023-04-01T00:03:56;1.77;;;0.93;;
8401;SDS011;4238;48.404;9.498;2023-04-01T00:06:24;0.90;;;0.60;;
8401;SDS011;4238;48.404;9.498;2023-04-01T00:08:52;1.67;;;0.93;;
8401;SDS011;4238;48.404;9.498;2023-04-01T00:11:19;1.60;;;0.80;;
8401;SDS011;4238;48.404;9.498;2023-04-01T00:13:46;0.77;;;0.70;;
8401;SDS011;4238;48.404;9.498;2023-04-01T00:16:13;1.40;;;0.70;;
8401;SDS011;4238;48.404;9.498;2023-04-01T00:18:41;1.20;;;0.70;;
8401;SDS011;4238;48.404;9.498;2023-04-01T00:21:08;0.93;;;0.80;;
8401;SDS011;4238;48.404;9.498;2023-04-01T00:23:35;1.23;;;0.63;;
8401;SDS011;4238;48.404;9.498;2023-04-01T00:26:03;0.97;;;0.43;;
8401;SDS011;4238;48.404;9.498;2023-04-01T00:28:30;1.00;;;0.80;;
8401;SDS011;4238;48.404;9.498;2023-04-01T00:31:03;0.50;;;0.50;;
8401;SDS011;4238;48.404;9.498;2023-04-01T00:33:31;1.63;;;0.73;;
8401;SDS011;4238;48.404;9.498;2023-04-01T00:36:04;0.80;;;0.70;;
8401;SDS011;4238;48.404;9.498;2023-04-01T00:38:33;0.50;;;0.50;;
8401;SDS011;4238;48.404;9.498;2023-04-01T00:41:01;1.10;;;0.60;;
8401;SDS011;4238;48.404;9.498;2023-04-01T00:43:29;0.73;;;0.70;;
8401;SDS011;4238;48.404;9.498;2023-04-01T00:45:56;1.37;;;0.77;;
8401;SDS011;4238;48.404;9.498;2023-04-01T00:48:24;0.70;;;0.70;;
8401;SDS011;4238;48.404;9.498;2023-04-01T00:50:54;1.03;;;0.70;;
8401;SDS011;4238;48.404;9.498;2023-04-01T00:53:24;2.00;;;0.80;;
8401;SDS011;4238;48.404;9.498;2023-04-01T00:55:54;2.10;;;0.80;;
8401;SDS011;4238;48.404;9.498;2023-04-01T00:58:24;0.53;;;0.53;;
8401;SDS011;4238;48.404;9.498;2023-04-01T01:00:57;1.73;;;1.00;;
8401;SDS011;4238;48.404;9.498;2023-04-01T01:03:25;1.70;;;0.40;;
8401;SDS011;4238;48.404;9.498;2023-04-01T01:06:00;1.77;;;0.90;;
8401;SDS011;4238;48.404;9.498;2023-04-01T01:08:42;0.73;;;0.73;;
8401;SDS011;4238;48.404;9.498;2023-04-01T01:11:26;1.13;;;0.70;;
8401;SDS011;4238;48.404;9.498;2023-04-01T01:14:01;2.77;;;0.80;;
8401;SDS011;4238;48.404;9.498;2023-04-01T01:16:39;0.60;;;0.30;;
8401;SDS011;4238;48.404;9.498;2023-04-01T01:19:14;1.70;;;0.50;;
8401;SDS011;4238;48.404;9.498;2023-04-01T01:22:12;0.77;;;0.77;;
8401;SDS011;4238;48.404;9.498;2023-04-01T01:24:56;1.50;;;0.60;;
8401;SDS011;4238;48.404;9.498;2023-04-01T01:27:34;0.70;;;0.70;;
8401;SDS011;4238;48.404;9.498;2023-04-01T01:30:29;1.77;;;0.57;;
8401;SDS011;4238;48.404;9.498;2023-04-01T01:33:09;0.87;;;0.47;;
8401;SDS011;4238;48.404;9.498;2023-04-01T01:35:47;0.53;;;0.53;;
8401;SDS011;4238;48.404;9.498;2023-04-01T01:38:16;0.40;;;0.30;;
8401;SDS011;4238;48.404;9.498;2023-04-01T01:40:45;2.10;;;0.67;;
8401;SDS011;4238;48.404;9.498;2023-04-01T01:43:17;0.50;;;0.50;;
8401;SDS011;4238;48.404;9.498;2023-04-01T01:45:49;0.50;;;0.47;;
8401;SDS011;4238;48.404;9.498;2023-04-01T01:48:18;1.37;;;0.30;;
8401;SDS011;4238;48.404;9.498;2023-04-01T01:50:47;0.20;;;0.20;;
8401;SDS011;4238;48.404;9.498;2023-04-01T01:53:15;4.47;;;0.73;;
8401;SDS011;4238;48.404;9.498;2023-04-01T01:55:43;1.07;;;0.30;;
8401;SDS011;4238;48.404;9.498;2023-04-01T01:58:13;0.40;;;0.40;;
8401;SDS011;4238;48.404;9.498;2023-04-01T02:00:44;0.47;;;0.33;;
8401;SDS011;4238;48.404;9.498;2023-04-01T02:03:14;0.50;;;0.50;;
8401;SDS011;4238;48.404;9.498;2023-04-01T02:05:43;1.50;;;1.13;;
8401;SDS011;4238;48.404;9.498;2023-04-01T02:08:13;0.13;;;0.10;;
8401;SDS011;4238;48.404;9.498;2023-04-01T02:10:45;0.50;;;0.50;;
8401;SDS011;4238;48.404;9.498;2023-04-01T02:13:18;0.20;;;0.20;;
8401;SDS011;4238;48.404;9.498;2023-04-01T02:15:49;0.20;;;0.20;;
8401;SDS011;4238;48.404;9.498;2023-04-01T02:18:18;0.50;;;0.30;;
8401;SDS011;4238;48.404;9.498;2023-04-01T02:20:46;0.10;;;0.10;;
8401;SDS011;4238;48.404;9.498;2023-04-01T02:23:16;0.20;;;0.20;;
8401;SDS011;4238;48.404;9.498;2023-04-01T02:25:43;0.23;;;0.10;;
8401;SDS011;4238;48.404;9.498;2023-04-01T02:28:11;0.30;;;0.30;;
8401;SDS011;4238;48.404;9.498;2023-04-01T02:30:42;0.10;;;0.10;;
8401;SDS011;4238;48.404;9.498;2023-04-01T02:33:10;0.10;;;0.10;;
8401;SDS011;4238;48.404;9.498;2023-04-01T02:35:37;0.67;;;0.20;;
8401;SDS011;4238;48.404;9.498;2023-04-01T02:38:05;0.33;;;0.30;;
8401;SDS011;4238;48.404;9.498;2023-04-01T02:40:42;0.73;;;0.37;;
8401;SDS011;4238;48.404;9.498;2023-04-01T02:43:10;0.27;;;0.27;;
8401;SDS011;4238;48.404;9.498;2023-04-01T02:45:37;0.10;;;0.10;;
8401;SDS011;4238;48.404;9.498;2023-04-01T02:48:04;0.10;;;0.10;;
8401;SDS011;4238;48.404;9.498;2023-04-01T02:50:32;2.30;;;0.33;;
8401;SDS011;4238;48.404;9.498;2023-04-01T02:52:59;0.10;;;0.10;;
8401;SDS011;4238;48.404;9.498;2023-04-01T02:55:27;0.40;;;0.40;;
8401;SDS011;4238;48.404;9.498;2023-04-01T02:57:56;0.00;;;0.00;;
8401;SDS011;4238;48.404;9.498;2023-04-01T03:00:23;0.97;;;0.20;;
8401;SDS011;4238;48.404;9.498;2023-04-01T03:02:50;0.27;;;0.10;;
8401;SDS011;4238;48.404;9.498;2023-04-01T03:05:17;0.63;;;0.23;;
8401;SDS011;4238;48.404;9.498;2023-04-01T03:07:44;0.20;;;0.20;;
8401;SDS011;4238;48.404;9.498;2023-04-01T03:10:12;1.30;;;0.30;;
8401;SDS011;4238;48.404;9.498;2023-04-01T03:12:38;0.10;;;0.10;;
8401;SDS011;4238;48.404;9.498;2023-04-01T03:15:08;0.37;;;0.20;;
8401;SDS011;4238;48.404;9.498;2023-04-01T03:17:36;0.20;;;0.20;;
8401;SDS011;4238;48.404;9.498;2023-04-01T03:20:04;0.10;;;0.10;;
8401;SDS011;4238;48.404;9.498;2023-04-01T03:22:33;0.20;;;0.20;;
8401;SDS011;4238;48.404;9.498;2023-04-01T03:25:00;0.00;;;0.00;;
8401;SDS011;4238;48.404;9.498;2023-04-01T03:27:27;1.20;;;0.20;;
8401;SDS011;4238;48.404;9.498;2023-04-01T03:29:54;0.30;;;0.30;;
8401;SDS011;4238;48.404;9.498;2023-04-01T03:32:22;0.00;;;0.00;;
8401;SDS011;4238;48.404;9.498;2023-04-01T03:34:49;0.00;;;0.00;;
8401;SDS011;4238;48.404;9.498;2023-04-01T03:37:16;0.10;;;0.10;;
8401;SDS011;4238;48.404;9.498;2023-04-01T03:39:43;0.00;;;0.00;;
8401;SDS011;4238;48.404;9.498;2023-04-01T03:42:11;0.10;;;0.10;;
8401;SDS011;4238;48.404;9.498;2023-04-01T03:44:38;0.10;;;0.10;;
8401;SDS011;4238;48.404;9.498;2023-04-01T03:47:05;0.10;;;0.10;;
8401;SDS011;4238;48.404;9.498;2023-04-01T03:49:35;0.00;;;0.00;;
8401;SDS011;4238;48.404;9.498;2023-04-01T03:52:02;0.00;;;0.00;;
8401;SDS011;4238;48.404;9.498;2023-04-01T03:54:29;0.10;;;0.10;;
8401;SDS011;4238;48.404;9.498;2023-04-01T03:56:57;0.00;;;0.00;;
8401;SDS011;4238;48.404;9.498;2023-04-01T03:59:24;0.00;;;0.00;;
8401;SDS011;4238;48.404;9.498;2023-04-01T04:01:51;0.20;;;0.20;;
8401;SDS011;4238;48.404;9.498;2023-04-01T04:04:17;0.47;;;0.23;;
8401;SDS011;4238;48.404;9.498;2023-04-01T04:06:46;0.20;;;0.20;;
8401;SDS011;4238;48.404;9.498;2023-04-01T04:09:13;0.10;;;0.10;;
8401;SDS011;4238;48.404;9.498;2023-04-01T04:11:40;0.20;;;0.10;;
8401;SDS011;4238;48.404;9.498;2023-04-01T04:14:07;0.07;;;0.07;;
8401;SDS011;4238;48.404;9.498;2023-04-01T04:16:34;0.57;;;0.20;;
8401;SDS011;4238;48.404;9.498;2023-04-01T04:19:02;0.57;;;0.30;;
8401;SDS011;4238;48.404;9.498;2023-04-01T04:21:29;0.30;;;0.13;;
8401;SDS011;4238;48.404;9.498;2023-04-01T04:23:59;0.27;;;0.20;;
8401;SDS011;4238;48.404;9.498;2023-04-01T04:26:26;0.83;;;0.30;;
8401;SDS011;4238;48.404;9.498;2023-04-01T04:28:53;0.20;;;0.20;;
8401;SDS011;4238;48.404;9.498;2023-04-01T04:31:21;0.20;;;0.20;;
8401;SDS011;4238;48.404;9.498;2023-04-01T04:33:49;1.03;;;0.50;;
8401;SDS011;4238;48.404;9.498;2023-04-01T04:36:16;0.30;;;0.30;;
8401;SDS011;4238;48.404;9.498;2023-04-01T04:38:43;0.60;;;0.37;;
8401;SDS011;4238;48.404;9.498;2023-04-01T04:41:11;0.80;;;0.47;;
8401;SDS011;4238;48.404;9.498;2023-04-01T04:43:39;0.30;;;0.30;;
8401;SDS011;4238;48.404;9.498;2023-04-01T04:46:07;1.37;;;0.53;;
8401;SDS011;4238;48.404;9.498;2023-04-01T04:48:34;1.10;;;0.40;;
8401;SDS011;4238;48.404;9.498;2023-04-01T04:51:02;0.30;;;0.30;;
8401;SDS011;4238;48.404;9.498;2023-04-01T04:53:29;0.27;;;0.20;;
8401;SDS011;4238;48.404;9.498;2023-04-01T04:55:56;0.50;;;0.50;;
8401;SDS011;4238;48.404;9.498;2023-04-01T04:58:24;0.40;;;0.33;;
8401;SDS011;4238;48.404;9.498;2023-04-01T05:00:51;0.40;;;0.30;;
8401;SDS011;4238;48.404;9.498;2023-04-01T05:03:18;0.83;;;0.70;;
8401;SDS011;4238;48.404;9.498;2023-04-01T05:05:48;0.30;;;0.30;;
8401;SDS011;4238;48.404;9.498;2023-04-01T05:08:16;0.77;;;0.70;;
8401;SDS011;4238;48.404;9.498;2023-04-01T05:10:43;0.73;;;0.40;;
8401;SDS011;4238;48.404;9.498;2023-04-01T05:13:10;1.40;;;0.60;;
8401;SDS011;4238;48.404;9.498;2023-04-01T05:15:39;0.80;;;0.43;;
8401;SDS011;4238;48.404;9.498;2023-04-01T05:18:06;0.73;;;0.63;;
8401;SDS011;4238;48.404;9.498;2023-04-01T05:20:33;1.20;;;0.70;;
8401;SDS011;4238;48.404;9.498;2023-04-01T05:23:00;0.30;;;0.30;;
8401;SDS011;4238;48.404;9.498;2023-04-01T05:25:27;0.37;;;0.37;;
8401;SDS011;4238;48.404;9.498;2023-04-01T05:27:54;1.00;;;0.40;;
8401;SDS011;4238;48.404;9.498;2023-04-01T05:30:21;1.52;;;0.82;;
8401;SDS011;4238;48.404;9.498;2023-04-01T05:32:49;0.40;;;0.40;;
8401;SDS011;4238;48.404;9.498;2023-04-01T05:35:16;0.30;;;0.30;;
8401;SDS011;4238;48.404;9.498;2023-04-01T05:37:43;1.53;;;0.40;;
8401;SDS011;4238;48.404;9.498;2023-04-01T05:40:10;0.83;;;0.30;;
8401;SDS011;4238;48.404;9.498;2023-04-01T05:42:37;0.40;;;0.40;;
8401;SDS011;4238;48.404;9.498;2023-04-01T05:45:04;0.10;;;0.10;;
8401;SDS011;4238;48.404;9.498;2023-04-01T05:47:32;0.30;;;0.30;;
8401;SDS011;4238;48.404;9.498;2023-04-01T05:50:00;1.60;;;0.10;;
8401;SDS011;4238;48.404;9.498;2023-04-01T05:52:27;0.73;;;0.73;;
8401;SDS011;4238;48.404;9.498;2023-04-01T05:54:54;0.60;;;0.60;;
8401;SDS011;4238;48.404;9.498;2023-04-01T05:57:21;0.20;;;0.20;;
8401;SDS011;4238;48.404;9.498;2023-04-01T05:59:48;1.13;;;0.80;;
8401;SDS011;4238;48.404;9.498;2023-04-01T06:02:16;0.30;;;0.30;;
8401;SDS011;4238;48.404;9.498;2023-04-01T06:04:44;0.20;;;0.20;;
8401;SDS011;4238;48.404;9.498;2023-04-01T06:07:13;0.10;;;0.10;;
8401;SDS011;4238;48.404;9.498;2023-04-01T06:09:41;0.50;;;0.47;;
8401;SDS011;4238;48.404;9.498;2023-04-01T06:12:21;0.57;;;0.40;;
8401;SDS011;4238;48.404;9.498;2023-04-01T06:14:58;0.00;;;0.00;;
8401;SDS011;4238;48.404;9.498;2023-04-01T06:17:39;0.43;;;0.43;;
8401;SDS011;4238;48.404;9.498;2023-04-01T06:20:17;0.60;;;0.40;;
8401;SDS011;4238;48.404;9.498;2023-04-01T06:23:05;0.57;;;0.20;;
8401;SDS011;4238;48.404;9.498;2023-04-01T06:25:42;0.40;;;0.40;;
8401;SDS011;4238;48.404;9.498;2023-04-01T06:28:42;0.30;;;0.30;;
8401;SDS011;4238;48.404;9.498;2023-04-01T06:31:33;1.60;;;0.70;;
8401;SDS011;4238;48.404;9.498;2023-04-01T06:34:21;0.30;;;0.30;;
8401;SDS011;4238;48.404;9.498;2023-04-01T06:37:16;1.60;;;0.37;;
8401;SDS011;4238;48.404;9.498;2023-04-01T06:43:09;0.20;;;0.20;;
8401;SDS011;4238;48.404;9.498;2023-04-01T06:45:46;1.60;;;0.57;;
8401;SDS011;4238;48.404;9.498;2023-04-01T06:48:22;0.83;;;0.80;;
8401;SDS011;4238;48.404;9.498;2023-04-01T06:51:09;0.40;;;0.40;;
8401;SDS011;4238;48.404;9.498;2023-04-01T06:53:47;0.50;;;0.50;;
8401;SDS011;4238;48.404;9.498;2023-04-01T06:56:22;0.70;;;0.70;;
8401;SDS011;4238;48.404;9.498;2023-04-01T06:58:53;0.40;;;0.40;;
8401;SDS011;4238;48.404;9.498;2023-04-01T07:01:24;0.30;;;0.30;;
8401;SDS011;4238;48.404;9.498;2023-04-01T07:03:55;0.37;;;0.37;;
8401;SDS011;4238;48.404;9.498;2023-04-01T07:06:25;0.70;;;0.23;;
8401;SDS011;4238;48.404;9.498;2023-04-01T07:08:57;0.73;;;0.30;;
8401;SDS011;4238;48.404;9.498;2023-04-01T07:11:31;1.13;;;0.70;;
8401;SDS011;4238;48.404;9.498;2023-04-01T07:14:01;0.50;;;0.23;;
8401;SDS011;4238;48.404;9.498;2023-04-01T07:16:33;1.40;;;0.20;;
8401;SDS011;4238;48.404;9.498;2023-04-01T07:19:05;0.93;;;0.37;;
8401;SDS011;4238;48.404;9.498;2023-04-01T07:21:39;0.50;;;0.50;;
8401;SDS011;4238;48.404;9.498;2023-04-01T07:24:11;0.87;;;0.40;;
8401;SDS011;4238;48.404;9.498;2023-04-01T07:26:44;0.53;;;0.53;;
8401;SDS011;4238;48.404;9.498;2023-04-01T07:29:12;1.47;;;0.40;;
8401;SDS011;4238;48.404;9.498;2023-04-01T07:31:45;0.30;;;0.30;;
8401;SDS011;4238;48.404;9.498;2023-04-01T07:34:43;0.40;;;0.40;;
8401;SDS011;4238;48.404;9.498;2023-04-01T07:37:19;0.53;;;0.53;;
8401;SDS011;4238;48.404;9.498;2023-04-01T07:39:52;0.33;;;0.33;;
8401;SDS011;4238;48.404;9.498;2023-04-01T07:42:27;0.70;;;0.70;;
8401;SDS011;4238;48.404;9.498;2023-04-01T07:45:01;1.37;;;0.73;;
8401;SDS011;4238;48.404;9.498;2023-04-01T07:47:39;0.57;;;0.47;;
8401;SDS011;4238;48.404;9.498;2023-04-01T07:50:17;0.70;;;0.60;;
8401;SDS011;4238;48.404;9.498;2023-04-01T07:52:53;0.20;;;0.20;;
8401;SDS011;4238;48.404;9.498;2023-04-01T07:55:30;0.30;;;0.23;;
8401;SDS011;4238;48.404;9.498;2023-04-01T07:58:04;2.50;;;0.57;;
8401;SDS011;4238;48.404;9.498;2023-04-01T08:00:37;0.30;;;0.30;;
8401;SDS011;4238;48.404;9.498;2023-04-01T08:03:13;0.40;;;0.37;;
8401;SDS011;4238;48.404;9.498;2023-04-01T08:05:49;0.87;;;0.53;;
8401;SDS011;4238;48.404;9.498;2023-04-01T08:08:25;1.00;;;1.00;;
8401;SDS011;4238;48.404;9.498;2023-04-01T08:11:02;2.13;;;0.90;;
8401;SDS011;4238;48.404;9.498;2023-04-01T08:13:39;6.83;;;1.57;;
8401;SDS011;4238;48.404;9.498;2023-04-01T08:16:12;0.40;;;0.40;;
8401;SDS011;4238;48.404;9.498;2023-04-01T08:18:46;0.93;;;0.30;;
8401;SDS011;4238;48.404;9.498;2023-04-01T08:21:27;0.17;;;0.17;;
8401;SDS011;4238;48.404;9.498;2023-04-01T08:23:59;0.63;;;0.30;;
8401;SDS011;4238;48.404;9.498;2023-04-01T08:26:35;0.43;;;0.40;;
8401;SDS011;4238;48.404;9.498;2023-04-01T08:29:09;1.37;;;0.47;;
8401;SDS011;4238;48.404;9.498;2023-04-01T08:31:41;0.50;;;0.37;;
8401;SDS011;4238;48.404;9.498;2023-04-01T08:34:14;0.53;;;0.20;;
8401;SDS011;4238;48.404;9.498;2023-04-01T08:36:44;1.17;;;0.37;;
8401;SDS011;4238;48.404;9.498;2023-04-01T08:39:19;0.33;;;0.33;;
8401;SDS011;4238;48.404;9.498;2023-04-01T08:45:10;0.53;;;0.53;;
8401;SDS011;4238;48.404;9.498;2023-04-01T08:47:59;0.50;;;0.20;;
8401;SDS011;4238;48.404;9.498;2023-04-01T08:53:50;1.83;;;1.10;;
8401;SDS011;4238;48.404;9.498;2023-04-01T08:56:30;0.20;;;0.20;;
8401;SDS011;4238;48.404;9.498;2023-04-01T08:59:09;1.30;;;0.30;;
8401;SDS011;4238;48.404;9.498;2023-04-01T09:02:09;1.70;;;0.30;;
8401;SDS011;4238;48.404;9.498;2023-04-01T09:07:53;0.77;;;0.30;;
8401;SDS011;4238;48.404;9.498;2023-04-01T09:10:32;0.30;;;0.30;;
8401;SDS011;4238;48.404;9.498;2023-04-01T09:13:19;0.40;;;0.37;;
8401;SDS011;4238;48.404;9.498;2023-04-01T09:19:18;0.10;;;0.10;;
8401;SDS011;4238;48.404;9.498;2023-04-01T09:22:03;0.73;;;0.30;;
8401;SDS011;4238;48.404;9.498;2023-04-01T09:25:06;0.30;;;0.30;;
8401;SDS011;4238;48.404;9.498;2023-04-01T09:27:52;0.40;;;0.40;;
8401;SDS011;4238;48.404;9.498;2023-04-01T09:30:32;1.40;;;0.40;;
8401;SDS011;4238;48.404;9.498;2023-04-01T09:33:16;0.20;;;0.20;;
8401;SDS011;4238;48.404;9.498;2023-04-01T09:36:10;0.30;;;0.20;;
8401;SDS011;4238;48.404;9.498;2023-04-01T09:38:49;0.67;;;0.37;;
8401;SDS011;4238;48.404;9.498;2023-04-01T09:41:26;0.87;;;0.50;;
8401;SDS011;4238;48.404;9.498;2023-04-01T09:44:03;0.30;;;0.30;;
8401;SDS011;4238;48.404;9.498;2023-04-01T09:46:47;0.20;;;0.20;;
8401;SDS011;4238;48.404;9.498;2023-04-01T09:49:38;0.10;;;0.10;;
8401;SDS011;4238;48.404;9.498;2023-04-01T09:52:24;0.53;;;0.40;;
8401;SDS011;4238;48.404;9.498;2023-04-01T09:55:04;0.30;;;0.30;;
8401;SDS011;4238;48.404;9.498;2023-04-01T09:57:57;0.27;;;0.20;;
8401;SDS011;4238;48.404;9.498;2023-04-01T10:04:05;0.37;;;0.37;;
8401;SDS011;4238;48.404;9.498;2023-04-01T10:07:04;0.03;;;0.00;;
8401;SDS011;4238;48.404;9.498;2023-04-01T10:09:57;0.40;;;0.40;;
8401;SDS011;4238;48.404;9.498;2023-04-01T10:12:55;0.20;;;0.20;;
8401;SDS011;4238;48.404;9.498;2023-04-01T10:16:03;0.27;;;0.27;;
8401;SDS011;4238;48.404;9.498;2023-04-01T10:19:04;0.27;;;0.23;;
8401;SDS011;4238;48.404;9.498;2023-04-01T10:22:17;0.20;;;0.20;;
8401;SDS011;4238;48.404;9.498;2023-04-01T10:25:10;0.10;;;0.10;;
8401;SDS011;4238;48.404;9.498;2023-04-01T10:27:56;1.43;;;0.33;;
8401;SDS011;4238;48.404;9.498;2023-04-01T10:31:06;0.23;;;0.23;;
8401;SDS011;4238;48.404;9.498;2023-04-01T10:34:19;0.40;;;0.37;;
8401;SDS011;4238;48.404;9.498;2023-04-01T10:37:23;0.13;;;0.13;;
8401;SDS011;4238;48.404;9.498;2023-04-01T10:46:40;1.00;;;0.30;;
8401;SDS011;4238;48.404;9.498;2023-04-01T10:50:04;1.37;;;1.27;;
8401;SDS011;4238;48.404;9.498;2023-04-01T10:53:19;0.10;;;0.10;;
8401;SDS011;4238;48.404;9.498;2023-04-01T10:56:13;1.03;;;1.03;;
8401;SDS011;4238;48.404;9.498;2023-04-01T11:02:56;0.70;;;0.70;;
8401;SDS011;4238;48.404;9.498;2023-04-01T11:15:16;0.20;;;0.20;;
8401;SDS011;4238;48.404;9.498;2023-04-01T11:21:22;0.20;;;0.20;;
8401;SDS011;4238;48.404;9.498;2023-04-01T11:24:29;0.30;;;0.30;;
8401;SDS011;4238;48.404;9.498;2023-04-01T11:27:22;0.50;;;0.43;;
8401;SDS011;4238;48.404;9.498;2023-04-01T11:33:07;0.20;;;0.20;;
8401;SDS011;4238;48.404;9.498;2023-04-01T11:35:52;0.20;;;0.20;;
8401;SDS011;4238;48.404;9.498;2023-04-01T11:38:31;0.30;;;0.30;;
8401;SDS011;4238;48.404;9.498;2023-04-01T11:41:15;0.20;;;0.20;;
8401;SDS011;4238;48.404;9.498;2023-04-01T11:43:54;0.37;;;0.37;;
8401;SDS011;4238;48.404;9.498;2023-04-01T11:46:39;0.50;;;0.50;;
8401;SDS011;4238;48.404;9.498;2023-04-01T11:49:25;0.27;;;0.27;;
8401;SDS011;4238;48.404;9.498;2023-04-01T11:52:09;0.50;;;0.50;;
8401;SDS011;4238;48.404;9.498;2023-04-01T11:57:51;1.70;;;0.53;;
8401;SDS011;4238;48.404;9.498;2023-04-01T12:00:46;0.10;;;0.10;;
8401;SDS011;4238;48.404;9.498;2023-04-01T12:03:34;0.20;;;0.20;;
8401;SDS011;4238;48.404;9.498;2023-04-01T12:06:11;1.60;;;1.50;;
8401;SDS011;4238;48.404;9.498;2023-04-01T12:08:46;0.40;;;0.40;;
8401;SDS011;4238;48.404;9.498;2023-04-01T12:11:23;0.20;;;0.17;;
8401;SDS011;4238;48.404;9.498;2023-04-01T12:13:57;0.40;;;0.40;;
8401;SDS011;4238;48.404;9.498;2023-04-01T12:16:29;0.40;;;0.40;;
8401;SDS011;4238;48.404;9.498;2023-04-01T12:19:11;0.20;;;0.20;;
8401;SDS011;4238;48.404;9.498;2023-04-01T12:21:49;0.20;;;0.20;;
8401;SDS011;4238;48.404;9.498;2023-04-01T12:24:34;0.10;;;0.10;;
8401;SDS011;4238;48.404;9.498;2023-04-01T12:27:22;0.10;;;0.10;;
8401;SDS011;4238;48.404;9.498;2023-04-01T12:30:12;0.37;;;0.37;;
8401;SDS011;4238;48.404;9.498;2023-04-01T12:32:50;0.27;;;0.20;;
8401;SDS011;4238;48.404;9.498;2023-04-01T12:35:34;0.20;;;0.20;;
8401;SDS011;4238;48.404;9.498;2023-04-01T12:38:16;0.40;;;0.20;;
8401;SDS011;4238;48.404;9.498;2023-04-01T12:40:56;0.60;;;0.60;;
8401;SDS011;4238;48.404;9.498;2023-04-01T12:46:54;1.47;;;0.90;;
8401;SDS011;4238;48.404;9.498;2023-04-01T12:49:48;3.10;;;1.93;;
8401;SDS011;4238;48.404;9.498;2023-04-01T12:52:44;4.77;;;3.80;;
8401;SDS011;4238;48.404;9.498;2023-04-01T12:55:33;6.00;;;4.53;;
8401;SDS011;4238;48.404;9.498;2023-04-01T13:01:08;0.93;;;0.30;;
8401;SDS011;4238;48.404;9.498;2023-04-01T13:04:02;0.60;;;0.53;;
8401;SDS011;4238;48.404;9.498;2023-04-01T13:06:53;0.50;;;0.50;;
8401;SDS011;4238;48.404;9.498;2023-04-01T13:09:42;1.47;;;1.37;;
8401;SDS011;4238;48.404;9.498;2023-04-01T13:12:29;0.53;;;0.53;;
8401;SDS011;4238;48.404;9.498;2023-04-01T13:15:23;0.63;;;0.63;;
8401;SDS011;4238;48.404;9.498;2023-04-01T13:17:57;0.60;;;0.60;;
8401;SDS011;4238;48.404;9.498;2023-04-01T13:20:35;0.83;;;0.80;;
8401;SDS011;4238;48.404;9.498;2023-04-01T13:23:16;0.27;;;0.27;;
8401;SDS011;4238;48.404;9.498;2023-04-01T13:25:58;0.57;;;0.57;;
8401;SDS011;4238;48.404;9.498;2023-04-01T13:28:34;0.40;;;0.40;;
8401;SDS011;4238;48.404;9.498;2023-04-01T13:31:06;0.20;;;0.20;;
8401;SDS011;4238;48.404;9.498;2023-04-01T13:33:42;2.60;;;1.57;;
8401;SDS011;4238;48.404;9.498;2023-04-01T13:36:17;0.93;;;0.93;;
8401;SDS011;4238;48.404;9.498;2023-04-01T13:42:04;0.77;;;0.77;;
8401;SDS011;4238;48.404;9.498;2023-04-01T13:44:41;1.00;;;1.00;;
8401;SDS011;4238;48.404;9.498;2023-04-01T13:47:18;2.67;;;1.30;;
8401;SDS011;4238;48.404;9.498;2023-04-01T13:50:12;3.03;;;2.07;;
8401;SDS011;4238;48.404;9.498;2023-04-01T13:52:52;1.67;;;1.57;;
8401;SDS011;4238;48.404;9.498;2023-04-01T13:55:44;0.97;;;0.73;;
8401;SDS011;4238;48.404;9.498;2023-04-01T13:58:27;1.33;;;1.23;;
8401;SDS011;4238;48.404;9.498;2023-04-01T14:01:09;2.43;;;2.20;;
8401;SDS011;4238;48.404;9.498;2023-04-01T14:03:49;1.77;;;1.67;;
8401;SDS011;4238;48.404;9.498;2023-04-01T14:06:47;0.27;;;0.27;;
8401;SDS011;4238;48.404;9.498;2023-04-01T14:12:19;0.93;;;0.93;;
8401;SDS011;4238;48.404;9.498;2023-04-01T14:15:00;3.10;;;2.80;;
8401;SDS011;4238;48.404;9.498;2023-04-01T14:17:56;4.40;;;3.50;;
8401;SDS011;4238;48.404;9.498;2023-04-01T14:20:38;2.13;;;1.93;;
8401;SDS011;4238;48.404;9.498;2023-04-01T14:23:19;3.17;;;2.60;;
8401;SDS011;4238;48.404;9.498;2023-04-01T14:26:07;1.80;;;1.70;;
8401;SDS011;4238;48.404;9.498;2023-04-01T14:28:42;2.77;;;2.13;;
8401;SDS011;4238;48.404;9.498;2023-04-01T14:31:23;2.80;;;2.60;;
8401;SDS011;4238;48.404;9.498;2023-04-01T14:34:04;2.67;;;2.47;;
8401;SDS011;4238;48.404;9.498;2023-04-01T14:36:47;2.60;;;2.40;;
8401;SDS011;4238;48.404;9.498;2023-04-01T14:39:26;0.40;;;0.40;;
8401;SDS011;4238;48.404;9.498;2023-04-01T14:42:10;2.87;;;2.50;;
8401;SDS011;4238;48.404;9.498;2023-04-01T14:44:57;0.90;;;0.90;;
8401;SDS011;4238;48.404;9.498;2023-04-01T14:47:50;2.23;;;2.03;;
8401;SDS011;4238;48.404;9.498;2023-04-01T14:50:20;3.37;;;2.67;;
8401;SDS011;4238;48.404;9.498;2023-04-01T14:52:53;2.30;;;2.13;;
8401;SDS011;4238;48.404;9.498;2023-04-01T14:55:28;3.13;;;2.70;;
8401;SDS011;4238;48.404;9.498;2023-04-01T14:57:59;0.57;;;0.33;;
8401;SDS011;4238;48.404;9.498;2023-04-01T15:00:39;1.23;;;1.13;;
8401;SDS011;4238;48.404;9.498;2023-04-01T15:03:22;0.80;;;0.80;;
8401;SDS011;4238;48.404;9.498;2023-04-01T15:05:55;1.40;;;0.93;;
8401;SDS011;4238;48.404;9.498;2023-04-01T15:08:41;1.00;;;1.00;;
8401;SDS011;4238;48.404;9.498;2023-04-01T15:11:21;0.80;;;0.70;;
8401;SDS011;4238;48.404;9.498;2023-04-01T15:16:55;3.27;;;2.30;;
8401;SDS011;4238;48.404;9.498;2023-04-01T15:19:37;1.70;;;1.60;;
8401;SDS011;4238;48.404;9.498;2023-04-01T15:22:20;0.97;;;0.97;;
8401;SDS011;4238;48.404;9.498;2023-04-01T15:25:04;4.07;;;2.37;;
8401;SDS011;4238;48.404;9.498;2023-04-01T15:27:43;0.70;;;0.70;;
8401;SDS011;4238;48.404;9.498;2023-04-01T15:30:22;1.97;;;1.77;;
8401;SDS011;4238;48.404;9.498;2023-04-01T15:33:01;0.50;;;0.50;;
8401;SDS011;4238;48.404;9.498;2023-04-01T15:35:39;4.87;;;3.97;;
8401;SDS011;4238;48.404;9.498;2023-04-01T15:38:14;1.13;;;1.00;;
8401;SDS011;4238;48.404;9.498;2023-04-01T15:40:47;2.97;;;2.53;;
8401;SDS011;4238;48.404;9.498;2023-04-01T15:43:24;1.03;;;0.93;;
8401;SDS011;4238;48.404;9.498;2023-04-01T15:46:09;0.40;;;0.40;;
8401;SDS011;4238;48.404;9.498;2023-04-01T15:48:47;1.87;;;0.67;;
8401;SDS011;4238;48.404;9.498;2023-04-01T15:51:27;0.60;;;0.60;;
8401;SDS011;4238;48.404;9.498;2023-04-01T15:54:28;3.07;;;2.57;;
8401;SDS011;4238;48.404;9.498;2023-04-01T15:57:15;5.83;;;3.27;;
8401;SDS011;4238;48.404;9.498;2023-04-01T15:59:53;2.97;;;2.47;;
8401;SDS011;4238;48.404;9.498;2023-04-01T16:02:33;1.87;;;1.77;;
8401;SDS011;4238;48.404;9.498;2023-04-01T16:05:10;6.80;;;4.47;;
8401;SDS011;4238;48.404;9.498;2023-04-01T16:07:57;6.57;;;5.00;;
8401;SDS011;4238;48.404;9.498;2023-04-01T16:10:44;1.87;;;1.77;;
8401;SDS011;4238;48.404;9.498;2023-04-01T16:13:28;3.07;;;2.10;;
8401;SDS011;4238;48.404;9.498;2023-04-01T16:16:06;0.57;;;0.57;;
8401;SDS011;4238;48.404;9.498;2023-04-01T16:18:48;2.87;;;2.47;;
8401;SDS011;4238;48.404;9.498;2023-04-01T16:21:36;0.83;;;0.83;;
8401;SDS011;4238;48.404;9.498;2023-04-01T16:24:17;1.40;;;0.80;;
8401;SDS011;4238;48.404;9.498;2023-04-01T16:26:51;1.03;;;0.70;;
8401;SDS011;4238;48.404;9.498;2023-04-01T16:29:28;3.10;;;2.67;;
8401;SDS011;4238;48.404;9.498;2023-04-01T16:32:11;0.67;;;0.43;;
8401;SDS011;4238;48.404;9.498;2023-04-01T16:34:47;1.03;;;0.80;;
8401;SDS011;4238;48.404;9.498;2023-04-01T16:37:29;3.43;;;2.40;;
8401;SDS011;4238;48.404;9.498;2023-04-01T16:40:10;1.33;;;1.23;;
8401;SDS011;4238;48.404;9.498;2023-04-01T16:42:43;2.27;;;1.10;;
8401;SDS011;4238;48.404;9.498;2023-04-01T16:45:18;0.70;;;0.70;;
8401;SDS011;4238;48.404;9.498;2023-04-01T16:47:52;0.50;;;0.50;;
8401;SDS011;4238;48.404;9.498;2023-04-01T16:50:23;1.37;;;0.90;;
8401;SDS011;4238;48.404;9.498;2023-04-01T16:53:00;1.47;;;1.37;;
8401;SDS011;4238;48.404;9.498;2023-04-01T16:55:43;1.13;;;1.03;;
8401;SDS011;4238;48.404;9.498;2023-04-01T16:58:18;0.90;;;0.50;;
8401;SDS011;4238;48.404;9.498;2023-04-01T17:00:49;1.00;;;0.90;;
8401;SDS011;4238;48.404;9.498;2023-04-01T17:03:20;1.03;;;0.80;;
8401;SDS011;4238;48.404;9.498;2023-04-01T17:05:55;2.47;;;2.00;;
8401;SDS011;4238;48.404;9.498;2023-04-01T17:08:35;3.30;;;2.73;;
8401;SDS011;4238;48.404;9.498;2023-04-01T17:11:18;1.50;;;1.40;;
8401;SDS011;4238;48.404;9.498;2023-04-01T17:13:50;2.60;;;2.40;;
8401;SDS011;4238;48.404;9.498;2023-04-01T17:16:43;1.67;;;1.57;;
8401;SDS011;4238;48.404;9.498;2023-04-01T17:19:41;1.90;;;1.80;;